Terminal Aerodrome Forecast
Issued by NWS

Home | Current Version | Previous Version | Text Only | Print | Product List | Glossary On
Versions: 1 2 3 4 5 6 7 8 9 10 11 12 13 14
703
FTUS45 KRIW 222324
TAFBPI
TAF
KBPI 222324Z 2300/2324 30012KT P6SM VCTS SCT050CB BKN080
     FM230600 VRB05KT P6SM -SHRA SCT012 OVC025
     FM231600 22008KT P6SM VCSH SCT030 OVC040=

USA.gov is the U.S. government's official web portal to all federal, state and local government web resources and services.